x

Smith Island, Wa (sisw1) Weather Station

2:00 - Tue 24th May 2016 All times are PDT. -7 hours from GMT.

  • Wind
    15mph, 20mph gusts
  • Luft Temp 52°f
  • Sea Pressure 1013.7mb
  • Smith Island, Wa
  • Smith Island, Wa

More Historic Weather Station data

Upgrade to MSW Pro to gain access to the past 30 days of data for over 8000 Wavebouys and Weather Stations around the globe.

Join Pro

Comparision Forecast

View Surf forecast
   
Di 05/24 2:00 15 20 mph 1013.7mb 52f
1:00 11 16 mph 1013.9mb 52f
12:00 16 18 mph 1013.8mb 52f
Mo 05/23 11:00 16 18 mph 1013.7mb 53f
10:00 17 20 mph 1013.6mb 53f
9:00 6 8 mph 1013.6mb 53f
8:00 6 7 mph 1013.6mb 53f
7:00  -  1 mph 1013.5mb 56f
6:00 1 2 mph 1013.8mb 55f
5:00 5 6 mph 1014mb 55f
4:00 7 8 mph 1014.1mb 56f
3:00 8
mph
1014.1mb 55f
2:00 6
mph
1014.1mb 56f
1:00 3 5 mph 1014mb 55f
12:00 6 7 mph 1014mb 54f
11:00 5 6 mph 1014mb 53f
10:00 5 6 mph 1013.8mb 52f
9:00 6 7 mph 1013.8mb 52f
8:00 6 7 mph 1013.7mb 52f
7:00 11 14 mph 1013.4mb 52f
6:00 15 16 mph 1013.1mb 51f
5:00 17 18 mph 1012.9mb 51f
4:00 17 18 mph 1012.7mb 51f
3:00 11 15 mph 1012.7mb 52f
2:00 13 14 mph 1012.5mb 52f
1:00 14 15 mph 1012.7mb 52f
12:00 14
mph
1012.8mb 52f
So 05/22 11:00 15 16 mph 1012.8mb 52f
10:00 10 13 mph 1012.7mb 53f
9:00 14 17 mph 1012.3mb 53f
8:00 14 17 mph 1012.1mb 54f
7:00 16 17 mph 1012.2mb 55f
6:00 10 11 mph 1012.4mb 56f
5:00 11 13 mph 1012.7mb 55f
4:00 9 11 mph 1012.7mb 57f
3:00 10 11 mph 1012.8mb 55f
2:00 7
mph
1012.8mb 57f
1:00 8 9 mph 1013mb 56f
12:00 9 10 mph 1012.9mb 56f
11:00 9 11 mph 1013.1mb 53f
10:00 7 8 mph 1012.9mb 53f
9:00 10 13 mph 1012.8mb 52f
8:00 7 8 mph 1012.6mb 53f
7:00 6 7 mph 1012.6mb 52f
6:00 8
mph
1012.2mb 52f
5:00 14 15 mph 1011.5mb 52f
4:00 15 16 mph 1011.4mb 52f
3:00 11 13 mph 1011.4mb 52f
2:00 13 15 mph 1011.3mb 52f
1:00 13 14 mph 1011.2mb 52f
12:00 9 10 mph 1011.3mb 52f
Sa 05/21 11:00 10 11 mph 1011.6mb 52f
10:00 9 10 mph 1011.4mb 52f
9:00 9 10 mph 1010.8mb 53f
8:00 14 15 mph 1010.6mb 54f
7:00 13 14 mph 1010.2mb 54f
6:00 11 13 mph 1009.8mb 55f
5:00 9 10 mph 1009.5mb 55f
4:00 8 9 mph 1009.2mb 57f
3:00 2 3 mph 1009mb 56f
2:00 7 8 mph 1009.1mb 55f
1:00 6 7 mph 1009mb 55f
12:00  -  5 mph 1008.9mb 53f
11:00 5 6 mph 1008.5mb 52f
10:00 1 5 mph 1008.1mb 53f
9:00 2 3 mph 1008mb 52f
8:00  -  2 mph 1007.6mb 52f
7:00 8 11 mph 1007.1mb 52f
6:00 10 14 mph 1006.6mb 52f
5:00 14 15 mph 1006.7mb 52f
4:00 17 20 mph 1006.6mb 52f
3:00 17 21 mph 1006.8mb 52f
2:00 23 26 mph 1006.7mb 53f
1:00 18 23 mph 1007mb 52f
12:00 16 22 mph 1007.4mb 52f
Fr 05/20 11:00 13 20 mph 1007.8mb 52f
10:00 11 15 mph 1008mb 54f
9:00 14 16 mph 1007.9mb 54f
8:00 10 11 mph 1008.2mb 55f
7:00 8 11 mph 1008.1mb 56f
6:00 11 14 mph 1008mb 55f
5:00 11 13 mph 1008.3mb 55f
4:00 13 14 mph 1008.8mb 55f
3:00 11 13 mph 1009.2mb 55f
2:00 6 8 mph 1009.6mb 56f
1:00 5 8 mph 1010.2mb 55f
12:00 2 6 mph 1010.5mb 55f
11:00  -  2 mph 1010.7mb 53f